Buoy 41991

sailwx.info

Track history (hours):
 
Tides and Currents Weather Stations Pressure Air Temp Water Temp Dewpoint Dewpoint Depression Visibility Wind Speed Wind Dir Waves Ship Positions

Drifting buoy 41991

Last reported at 2014-Jul-23 20:59 UTC. Time now 2014-Jul-23 22:14 UTC.
Position N 40°26' W 054°13'.

Water temperature 24.9 ° C

Date/timePositionNaut miles runAvg speedWind from/ knotsBaromVisibWave heightAir tempDewpointWater temp
2014-Jul-23 20:59N 40°26' W 054°13'126.3 24.9
2014-Jul-23 20:56N 40°26' W 054°15'1 0.9 24.9
2014-Jul-23 19:48N 40°26' W 054°16'3 6.0 25.1
2014-Jul-23 19:20N 40°25' W 054°20'222.8
2014-Jul-23 19:14N 40°24' W 054°22'0 0.0
2014-Jul-23 18:30N 40°24' W 054°22'0 0.0 25.5
2014-Jul-23 17:38N 40°24' W 054°22'3 2.8 25.7
2014-Jul-23 16:44N 40°23' W 054°26'3 2.5 25.6
2014-Jul-23 15:37N 40°23' W 054°29'0 0.0 25.3
2014-Jul-23 15:30N 40°23' W 054°29'410.4
2014-Jul-23 15:06N 40°21' W 054°34'0 0.0 25.3
2014-Jul-23 14:45N 40°21' W 054°34'7 8.8 25.1
2014-Jul-23 14:00N 40°19' W 054°42'0 0.0 24.8
2014-Jul-23 13:00N 40°19' W 054°42'0 0.0 24.4
2014-Jul-23 12:13N 40°19' W 054°42'0 0.0 24.2
2014-Jul-23 11:41N 40°19' W 054°42'0 0.0 24.2
2014-Jul-23 10:10N 40°19' W 054°42'0 5.8 24.2
2014-Jul-23 10:07N 40°19' W 054°42'435.8 24.2
2014-Jul-23 10:00N 40°18' W 054°47'439.0 24.2
2014-Jul-23 09:54N 40°19' W 054°42'411.2 24.2
2014-Jul-23 09:33N 40°18' W 054°47'0 0.0 24.2
2014-Jul-23 08:14N 40°18' W 054°47'1 2.9 24.2
2014-Jul-23 07:51N 40°17' W 054°48'239.0 24.2
2014-Jul-23 07:48N 40°17' W 054°51'0 0.0 24.2
2014-Jul-23 06:59N 40°17' W 054°51'480.3 24.2
2014-Jul-23 06:56N 40°15' W 054°55'0 0.0 24.2
2014-Jul-23 05:23N 40°15' W 054°55'740.3 24.2
2014-Jul-23 05:12N 40°11' W 055°04'0 0.0 24.2
2014-Jul-23 02:27N 40°11' W 055°04'772.2 24.2
2014-Jul-23 02:21N 40°07' W 055°12'0 0.0 24.2
2014-Jul-23 01:38N 40°07' W 055°12'0 0.0 24.2
2014-Jul-23 00:45N 40°07' W 055°12'0 0.0 24.3
2014-Jul-23 00:13N 40°07' W 055°12'0 1.6 24.3
2014-Jul-22 23:59N 40°07' W 055°12'438.0 24.3
2014-Jul-22 23:53N 40°05' W 055°15'0 0.0 24.3
2014-Jul-22 23:09N 40°05' W 055°15'0 0.0 24.3
2014-Jul-22 23:00N 40°05' W 055°15'3 2.2 24.3
2014-Jul-22 21:52N 40°03' W 055°18'0 0.0 24.3
2014-Jul-22 21:13N 40°03' W 055°18'438.9 24.3
2014-Jul-22 21:07N 40°01' W 055°22'7 7.2 24.3
2014-Jul-22 20:12N 39°56' W 055°28'0 0.0 24.3
2014-Jul-22 19:31N 39°56' W 055°28'0 0.0 24.3
2014-Jul-22 18:41N 39°56' W 055°28'0 0.0 24.3
2014-Jul-22 18:36N 39°56' W 055°28'0 0.0 24.3
2014-Jul-22 18:34N 39°56' W 055°28'0 0.0
2014-Jul-22 18:27N 39°56' W 055°28'2 2.5 24.3
2014-Jul-22 17:49N 39°55' W 055°29'0 0.0 24.3
2014-Jul-22 17:00N 39°55' W 055°29'5 4.2 24.3
2014-Jul-22 15:52N 39°51' W 055°34'0 0.0 24.2
2014-Jul-22 15:18N 39°51' W 055°34'421.8 24.2
2014-Jul-22 15:07N 39°48' W 055°37'810.6 24.2
2014-Jul-22 14:21N 39°44' W 055°46'0 0.0 24.2
2014-Jul-22 12:32N 39°44' W 055°46'0 0.1 24.2
2014-Jul-22 10:34N 39°44' W 055°46'1 4.2 24.2
2014-Jul-22 10:22N 39°43' W 055°45'5 7.5 24.2
2014-Jul-22 09:39N 39°41' W 055°52'1 1.2 24.2
2014-Jul-22 08:56N 39°42' W 055°51'210.2 24.2
2014-Jul-22 08:44N 39°41' W 055°53'0 0.0 24.2
2014-Jul-22 07:57N 39°41' W 055°53'3184.4 24.2
2014-Jul-22 07:56N 39°40' W 055°57'0 0.1 24.2
2014-Jul-22 07:13N 39°40' W 055°57'211.1 24.2
2014-Jul-22 07:00N 39°38' W 055°59'1115.0 24.2
2014-Jul-22 06:18N 39°33' W 056°11'0 0.0 24.2
2014-Jul-22 05:31N 39°33' W 056°11'0 0.0 24.2
2014-Jul-22 02:49N 39°33' W 056°11'3 3.1 24.2
2014-Jul-22 01:59N 39°32' W 056°14'2 2.4 24.2
2014-Jul-22 01:11N 39°31' W 056°16'0 0.0 24.2
2014-Jul-22 01:05N 39°31' W 056°16'330.7 24.2
2014-Jul-22 01:00N 39°30' W 056°19'2 4.0 24.2
2014-Jul-22 00:23N 39°30' W 056°23'0 0.0 24.2
2014-Jul-21 23:31N 39°30' W 056°23'3 7.9 24.2
2014-Jul-21 23:08N 39°27' W 056°25'0 0.0 24.2
2014-Jul-21 22:14N 39°27' W 056°25'265.3 24.2
2014-Jul-21 22:12N 39°27' W 056°28'0 0.0 24.2
2014-Jul-21 21:28N 39°27' W 056°28'0 0.0 24.2
2014-Jul-21 21:23N 39°27' W 056°28'120.9 24.2
2014-Jul-21 21:19N 39°27' W 056°30'0 0.0 24.2
2014-Jul-21 20:40N 39°27' W 056°30'578.5 24.2
2014-Jul-21 20:36N 39°28' W 056°37'0 0.0 24.2
2014-Jul-21 19:43N 39°28' W 056°37'2 3.2 24.2
2014-Jul-21 18:56N 39°26' W 056°35'0 0.0 24.2
2014-Jul-21 18:53N 39°26' W 056°35'1096.5 24.2
2014-Jul-21 18:47N 39°27' W 056°48'0 0.0 24.2
2014-Jul-21 17:59N 39°27' W 056°48'0 0.0 24.2
2014-Jul-21 17:11N 39°27' W 056°48'1 0.6 24.2
2014-Jul-21 15:29N 39°26' W 056°48'1 1.7 24.2
2014-Jul-21 14:41N 39°27' W 056°49'744.5 24.2
2014-Jul-21 14:31N 39°27' W 056°59'0 0.0 24.2
2014-Jul-21 13:48N 39°27' W 056°59'0 0.0 24.2
2014-Jul-21 11:59N 39°27' W 056°59'1 0.5 24.2
2014-Jul-21 10:58N 39°27' W 056°58'213.7 24.2
2014-Jul-21 10:49N 39°28' W 057°01'2 2.1 24.2
2014-Jul-21 09:51N 39°29' W 057°03'0 0.8 24.1
2014-Jul-21 09:13N 39°29' W 057°02'236.3 24.1
2014-Jul-21 09:10N 39°30' W 057°04'0 0.1 24.1
2014-Jul-21 08:14N 39°30' W 057°04'124.7 24.1
2014-Jul-21 08:11N 39°31' W 057°05'0 0.0 24.1
2014-Jul-21 07:33N 39°31' W 057°05'0 0.0 24.1
2014-Jul-21 07:30N 39°31' W 057°05'0 0.0
2014-Jul-21 07:28N 39°31' W 057°05'423.4 24.2
2014-Jul-21 07:19N 39°34' W 057°07'0 0.0 24.2
2014-Jul-21 05:45N 39°34' W 057°07'547.7 24.2
2014-Jul-21 05:39N 39°38' W 057°09'0 0.0 24.2
2014-Jul-21 05:36N 39°38' W 057°09'0 0.0 24.2
2014-Jul-21 03:59N 39°38' W 057°09'0 0.0 24.0
2014-Jul-21 03:08N 39°38' W 057°09'0 0.3 24.0
2014-Jul-21 02:19N 39°39' W 057°10'1 1.7 24.0
2014-Jul-21 01:31N 39°40' W 057°09'2 2.9 24.0
2014-Jul-21 00:43N 39°42' W 057°08'0 0.0 24.0
2014-Jul-20 23:51N 39°42' W 057°08'1 4.6 24.0
2014-Jul-20 23:39N 39°43' W 057°09'1 1.6 24.1
2014-Jul-20 22:58N 39°44' W 057°09'2 2.5 24.1
2014-Jul-20 21:57N 39°46' W 057°08'2 5.3 24.0
2014-Jul-20 21:34N 39°48' W 057°07'0 0.0 24.1
2014-Jul-20 21:31N 39°48' W 057°07'0 0.0 24.1
2014-Jul-20 20:57N 39°48' W 057°07'2 3.5 24.1
2014-Jul-20 20:14N 39°51' W 057°07'0 0.0 24.1
2014-Jul-20 19:56N 39°51' W 057°07'1 1.7 24.1
2014-Jul-20 19:24N 39°52' W 057°06'0 1.8 24.0
2014-Jul-20 19:13N 39°52' W 057°07'0 0.0 24.0
2014-Jul-20 19:04N 39°52' W 057°07'446.5 24.0
2014-Jul-20 18:59N 39°55' W 057°04'0 0.0 24.0
2014-Jul-20 18:13N 39°55' W 057°04'0 0.1 24.0
2014-Jul-20 17:24N 39°55' W 057°04'4 2.3 24.0
2014-Jul-20 15:41N 39°59' W 057°03'0 0.0 24.0
2014-Jul-20 15:00N 39°59' W 057°03'322.6 24.0
2014-Jul-20 14:53N 40°02' W 057°02'0 0.0 24.0
2014-Jul-20 14:08N 40°02' W 057°02'0 0.0 24.0
2014-Jul-20 13:20N 40°02' W 057°02'322.7 24.0
2014-Jul-20 13:13N 40°04' W 057°02'3 3.8 24.0
2014-Jul-20 12:28N 40°07' W 057°01'0 0.0 24.0
2014-Jul-20 12:21N 40°07' W 057°01'0 0.0 24.0
2014-Jul-20 11:24N 40°07' W 057°01'0 0.0 24.0
2014-Jul-20 11:21N 40°07' W 057°01'0 0.0 24.0
2014-Jul-20 11:14N 40°07' W 057°01'2 1.4 24.0
2014-Jul-20 10:00N 40°07' W 056°59'2 8.4 24.0
2014-Jul-20 09:48N 40°08' W 057°01'223.5 24.0
2014-Jul-20 09:44N 40°08' W 056°59'2 1.5 24.0
2014-Jul-20 08:28N 40°09' W 056°59'210.1 23.9
2014-Jul-20 08:19N 40°11' W 056°59'1 4.0 23.9
2014-Jul-20 08:08N 40°10' W 056°59'1 4.8 23.9
2014-Jul-20 07:59N 40°11' W 056°59'0 0.0 23.9
2014-Jul-20 07:38N 40°11' W 056°59'0 2.6 23.9
2014-Jul-20 07:31N 40°11' W 056°59'910.6 23.9
2014-Jul-20 06:42N 40°19' W 056°54'0 0.0 24.0
2014-Jul-20 05:54N 40°19' W 056°54'0 0.0 24.0
2014-Jul-20 05:47N 40°19' W 056°54'0 0.0 24.0
2014-Jul-20 01:43N 40°19' W 056°54'3 3.7 24.1
2014-Jul-20 01:00N 40°20' W 056°51'0 0.0
2014-Jul-20 00:12N 40°20' W 056°51'0 0.0 24.2
2014-Jul-20 00:08N 40°20' W 056°51'0 9.0 24.2
2014-Jul-20 00:05N 40°20' W 056°50'3 3.7 24.2
2014-Jul-19 23:22N 40°23' W 056°50'0 0.0 24.2
2014-Jul-19 22:32N 40°23' W 056°50'0 0.0 24.2
2014-Jul-19 21:44N 40°23' W 056°50'0 0.0
2014-Jul-19 21:30N 40°23' W 056°50'1 1.8 24.2
2014-Jul-19 20:43N 40°24' W 056°50'0 0.0 24.4
2014-Jul-19 20:08N 40°24' W 056°50'211.7 24.5
2014-Jul-19 20:00N 40°26' W 056°49'0 0.0 24.5
2014-Jul-19 19:50N 40°26' W 056°49'0 0.0 24.5
2014-Jul-19 19:14N 40°26' W 056°49'0 0.0 24.5
2014-Jul-19 19:11N 40°26' W 056°49'0 0.2 24.5
2014-Jul-19 18:24N 40°25' W 056°49'1 1.1 24.5
2014-Jul-19 17:36N 40°26' W 056°50'0 0.0 24.4
2014-Jul-19 17:29N 40°26' W 056°50'1 0.7 24.3
2014-Jul-19 15:53N 40°27' W 056°49'0 0.9 24.0
2014-Jul-19 15:22N 40°27' W 056°48'1 9.0 23.9
2014-Jul-19 15:13N 40°28' W 056°47'0 0.0 23.9
2014-Jul-19 14:31N 40°28' W 056°47'0 0.2 23.9
2014-Jul-19 13:44N 40°29' W 056°47'3 2.6 23.8
2014-Jul-19 12:45N 40°30' W 056°45'0 0.0 23.9
2014-Jul-19 11:54N 40°30' W 056°45'0 0.0
2014-Jul-19 11:43N 40°30' W 056°45'1 0.7 23.8
2014-Jul-19 10:14N 40°31' W 056°43'0 0.0 23.8
2014-Jul-19 10:07N 40°31' W 056°43'0 7.2
2014-Jul-19 10:03N 40°31' W 056°43'0 0.3 23.8
2014-Jul-19 08:37N 40°31' W 056°44'0 0.0 23.9
2014-Jul-19 08:34N 40°31' W 056°44'0 0.0 23.9
2014-Jul-19 08:30N 40°31' W 056°44'0 0.6 23.9
2014-Jul-19 07:47N 40°31' W 056°43'1 4.7 23.9
2014-Jul-19 07:40N 40°31' W 056°43'0 0.0 23.9
2014-Jul-19 06:58N 40°31' W 056°43'1 4.3 23.9
2014-Jul-19 06:50N 40°32' W 056°43'0 0.0 23.9
2014-Jul-19 06:09N 40°32' W 056°43'0 0.0 23.9
2014-Jul-19 06:00N 40°32' W 056°43'3176.7 23.9
2014-Jul-19 05:59N 40°33' W 056°39'0 0.0 23.9
2014-Jul-19 04:24N 40°33' W 056°39'0 0.0 23.9
2014-Jul-19 04:17N 40°33' W 056°39'0 0.0
2014-Jul-19 02:12N 40°33' W 056°39'0 2.0 23.9
2014-Jul-19 02:03N 40°33' W 056°39'0 0.0 23.9
2014-Jul-19 01:26N 40°33' W 056°39'1 6.5 23.9
2014-Jul-19 01:19N 40°34' W 056°38'0 0.1 23.9
2014-Jul-19 00:34N 40°34' W 056°38'0 1.4 23.9
2014-Jul-19 00:32N 40°34' W 056°38'0 0.5 23.9
2014-Jul-19 00:27N 40°34' W 056°38'0 0.4 23.9
2014-Jul-18 23:46N 40°34' W 056°39'0 0.0 23.9
2014-Jul-18 23:41N 40°34' W 056°39'0 6.6 23.9
2014-Jul-18 23:37N 40°34' W 056°38'0 0.0 23.9
2014-Jul-18 22:58N 40°34' W 056°38'1 7.5 24.0
2014-Jul-18 22:51N 40°35' W 056°37'0 0.0 24.0
2014-Jul-18 21:52N 40°35' W 056°37'1 0.6 24.0
2014-Jul-18 20:19N 40°34' W 056°36'1 8.2 24.0
2014-Jul-18 20:10N 40°34' W 056°34'0 0.0 23.9
2014-Jul-18 18:36N 40°34' W 056°34'1 1.2 23.9
2014-Jul-18 17:46N 40°35' W 056°33'2 1.3 23.9
2014-Jul-18 16:04N 40°35' W 056°30'0 0.0 23.9
2014-Jul-18 15:39N 40°35' W 056°30'0 0.0 23.9
2014-Jul-18 14:51N 40°35' W 056°30'0 0.4 23.9
2014-Jul-18 14:05N 40°35' W 056°31'0 1.8 23.9
2014-Jul-18 13:59N 40°35' W 056°31'0 0.1 23.8
2014-Jul-18 12:21N 40°35' W 056°30'0 2.0 23.8
2014-Jul-18 12:14N 40°35' W 056°30'0 0.0 23.8
2014-Jul-18 10:45N 40°35' W 056°30'1 5.1 23.7
2014-Jul-18 10:29N 40°35' W 056°28'0 0.0 23.8
2014-Jul-18 09:10N 40°35' W 056°28'0 0.7 23.8
2014-Jul-18 08:54N 40°35' W 056°28'1 5.9 23.8
2014-Jul-18 08:44N 40°34' W 056°27'012.0
2014-Jul-18 08:42N 40°35' W 056°27'0 0.3 23.8
2014-Jul-18 07:57N 40°34' W 056°28'113.7 23.8
2014-Jul-18 07:54N 40°34' W 056°27'1 1.3 23.8
2014-Jul-18 07:27N 40°35' W 056°27'0 0.0 23.9
2014-Jul-18 07:09N 40°35' W 056°27'114.1 23.9
2014-Jul-18 07:06N 40°35' W 056°26'110.9 23.9
2014-Jul-18 07:00N 40°35' W 056°24'0 0.0 23.9
2014-Jul-18 06:21N 40°35' W 056°24'0 0.0 23.9
2014-Jul-18 06:12N 40°35' W 056°24'1 0.8 23.9
2014-Jul-18 04:32N 40°35' W 056°23'0 0.0 23.9
2014-Jul-18 04:29N 40°35' W 056°23'0 0.1 23.9
2014-Jul-18 02:33N 40°35' W 056°23'1 1.0 24.0
2014-Jul-18 01:43N 40°35' W 056°22'0 0.6 24.0
2014-Jul-18 00:55N 40°36' W 056°22'0 0.0 24.0
2014-Jul-18 00:47N 40°36' W 056°22'0 0.5 24.0
2014-Jul-18 00:06N 40°35' W 056°22'0 5.5 24.0
2014-Jul-18 00:05N 40°35' W 056°22'1 5.8 24.0
2014-Jul-17 23:58N 40°36' W 056°21'0 0.0 24.0
2014-Jul-17 23:29N 40°36' W 056°21'0 1.4 24.1
2014-Jul-17 23:13N 40°35' W 056°21'0 0.4 24.1
2014-Jul-17 22:14N 40°35' W 056°21'0 0.0 24.1
2014-Jul-17 21:55N 40°35' W 056°21'1 0.8 24.1
2014-Jul-17 20:36N 40°35' W 056°20'0 0.0 24.1
2014-Jul-17 20:31N 40°35' W 056°20'1 4.6 24.1
2014-Jul-17 20:20N 40°34' W 056°19'0 0.0 24.1
2014-Jul-17 20:08N 40°34' W 056°19'0 0.0 24.1
2014-Jul-17 18:56N 40°34' W 056°19'0 1.6 24.1
2014-Jul-17 18:47N 40°34' W 056°19'1 1.0 24.1
2014-Jul-17 17:56N 40°34' W 056°18'1 1.2 24.1
2014-Jul-17 17:06N 40°34' W 056°17'1 1.6 24.1
2014-Jul-17 16:12N 40°34' W 056°15'1 0.8 24.0
2014-Jul-17 15:10N 40°34' W 056°16'1 0.9 23.9
2014-Jul-17 14:22N 40°34' W 056°15'0 1.5 23.9
2014-Jul-17 14:13N 40°34' W 056°15'0 0.1
2014-Jul-17 12:42N 40°34' W 056°15'2 2.3 23.9
2014-Jul-17 11:45N 40°34' W 056°12'0 0.0 23.9
2014-Jul-17 11:18N 40°34' W 056°12'0 0.0 23.9
2014-Jul-17 10:35N 40°34' W 056°12'2 1.3 23.9
2014-Jul-17 09:13N 40°34' W 056°14'1 4.3 23.8
2014-Jul-17 08:53N 40°34' W 056°12'1 0.6 23.9
2014-Jul-17 08:03N 40°34' W 056°13'110.0 24.0
2014-Jul-17 08:00N 40°34' W 056°12'1 1.1 24.0
2014-Jul-17 07:33N 40°34' W 056°13'1 3.2 24.0
2014-Jul-17 07:21N 40°34' W 056°12'0 1.3 24.0
2014-Jul-17 07:14N 40°34' W 056°12'0 0.5 24.1
2014-Jul-17 06:31N 40°33' W 056°12'2 8.3 24.1
2014-Jul-17 06:20N 40°33' W 056°10'0 0.0 24.1
2014-Jul-17 04:47N 40°33' W 056°10'0 0.0 24.1
2014-Jul-17 04:38N 40°33' W 056°10'0 0.1 24.1
2014-Jul-17 02:53N 40°33' W 056°10'0 0.5 23.9
2014-Jul-17 02:05N 40°33' W 056°10'1 1.2 23.9
2014-Jul-17 01:13N 40°33' W 056°08'1 1.1 24.0
2014-Jul-17 00:25N 40°32' W 056°09'125.1 24.0
2014-Jul-17 00:23N 40°32' W 056°09'0 0.0 24.0
2014-Jul-16 23:58N 40°32' W 056°09'0 0.0 23.9
2014-Jul-16 23:33N 40°32' W 056°09'1 7.0 23.9
2014-Jul-16 23:26N 40°31' W 056°08'0 0.0 23.9
2014-Jul-16 22:26N 40°31' W 056°08'0 0.0 23.9
2014-Jul-16 21:00N 40°31' W 056°08'0 0.1 24.1
2014-Jul-16 20:40N 40°31' W 056°08'1 6.7 24.1
2014-Jul-16 20:35N 40°31' W 056°07'0 0.1 24.1
2014-Jul-16 19:24N 40°31' W 056°07'0 0.2 23.9
2014-Jul-16 18:59N 40°31' W 056°07'1 8.7 23.9
2014-Jul-16 18:52N 40°30' W 056°06'0 0.0 23.9
2014-Jul-16 18:09N 40°30' W 056°06'1 1.0 24.1
2014-Jul-16 17:17N 40°29' W 056°06'0 0.0 24.3
2014-Jul-16 17:14N 40°29' W 056°06'0 0.2 24.3
2014-Jul-16 16:25N 40°29' W 056°06'116.8 24.2
2014-Jul-16 16:20N 40°29' W 056°05'0 0.0 24.2
2014-Jul-16 15:30N 40°29' W 056°05'1 0.9 24.2
2014-Jul-16 14:44N 40°29' W 056°04'0 0.0 24.2
2014-Jul-16 14:37N 40°29' W 056°04'0 0.0 24.2
2014-Jul-16 13:52N 40°29' W 056°04'0 0.0 24.1
2014-Jul-16 13:00N 40°29' W 056°04'1 0.7 24.0
2014-Jul-16 12:10N 40°29' W 056°04'0 3.9 23.9
2014-Jul-16 12:05N 40°29' W 056°03'0 0.0 23.9
2014-Jul-16 11:19N 40°29' W 056°03'0 0.0 23.9
2014-Jul-16 11:13N 40°29' W 056°03'0 1.0 23.9
2014-Jul-16 10:48N 40°29' W 056°03'0 0.0 23.9
2014-Jul-16 10:13N 40°29' W 056°03'0 3.9 23.9
2014-Jul-16 10:09N 40°28' W 056°04'0 0.0 23.9
2014-Jul-16 09:44N 40°28' W 056°04'0 1.0 23.9
2014-Jul-16 09:35N 40°28' W 056°03'0 0.3 23.9
2014-Jul-16 09:14N 40°28' W 056°03'0 6.6 23.9
2014-Jul-16 09:12N 40°28' W 056°03'110.7 23.9
2014-Jul-16 09:07N 40°28' W 056°04'0 0.5 23.9
2014-Jul-16 08:19N 40°27' W 056°04'1 0.8 23.9
2014-Jul-16 07:32N 40°27' W 056°04'0 0.0 23.9
2014-Jul-16 07:29N 40°27' W 056°04'120.5 23.9
2014-Jul-16 07:25N 40°26' W 056°03'0 0.0 23.9
2014-Jul-16 06:51N 40°26' W 056°03'0 0.0 23.9
2014-Jul-16 06:41N 40°26' W 056°03'1 9.2 23.9
2014-Jul-16 06:33N 40°25' W 056°03'0 0.0 23.9
2014-Jul-16 04:59N 40°25' W 056°03'213.1 23.9
2014-Jul-16 04:50N 40°24' W 056°01'0 0.0 23.9
2014-Jul-16 02:26N 40°24' W 056°01'0 0.4 23.9
2014-Jul-16 01:30N 40°23' W 056°00'1 1.4 23.9
2014-Jul-16 00:44N 40°23' W 055°59'0 0.0 23.9
2014-Jul-16 00:31N 40°23' W 055°59'0 0.0 23.9
2014-Jul-15 23:56N 40°23' W 055°59'1 7.0 23.9
2014-Jul-15 23:45N 40°22' W 055°58'0 0.5 24.0
2014-Jul-15 23:06N 40°22' W 055°59'0 2.0 24.0
2014-Jul-15 22:57N 40°22' W 055°58'0 0.2 24.0
2014-Jul-15 21:28N 40°22' W 055°59'0 0.7 24.0
2014-Jul-15 20:48N 40°22' W 055°59'223.0 24.1
2014-Jul-15 20:43N 40°20' W 055°58'0 0.0 24.1
2014-Jul-15 19:48N 40°20' W 055°58'0 0.0 24.1
2014-Jul-15 19:44N 40°20' W 055°58'0 0.1 24.1
2014-Jul-15 19:09N 40°20' W 055°58'1 0.7 24.1
2014-Jul-15 18:13N 40°19' W 055°58'1 1.3 24.0
2014-Jul-15 17:29N 40°18' W 055°57'0 0.0 24.0
2014-Jul-15 17:27N 40°18' W 055°57'0 0.0 24.0
2014-Jul-15 16:37N 40°18' W 055°57'1 0.8 23.9
2014-Jul-15 15:45N 40°18' W 055°56'1 0.7
2014-Jul-15 14:59N 40°18' W 055°57'224.6
2014-Jul-15 14:55N 40°16' W 055°56'0 0.3 23.8
2014-Jul-15 14:13N 40°16' W 055°56'0 0.0 23.8
2014-Jul-15 13:24N 40°16' W 055°56'214.3 23.7
2014-Jul-15 13:14N 40°14' W 055°55'0 0.0 23.7
2014-Jul-15 11:39N 40°14' W 055°55'0 0.0 23.6
2014-Jul-15 10:42N 40°14' W 055°55'0 0.3 23.6
2014-Jul-15 10:08N 40°14' W 055°55'1 7.5 23.6
2014-Jul-15 10:03N 40°13' W 055°55'0 0.2 23.6
2014-Jul-15 09:22N 40°13' W 055°55'1 1.7 23.6
2014-Jul-15 09:00N 40°13' W 055°54'1 1.6 23.6
2014-Jul-15 08:25N 40°12' W 055°54'0 0.6 23.7
2014-Jul-15 07:42N 40°12' W 055°54'0 0.5 23.7
2014-Jul-15 07:22N 40°12' W 055°54'1 1.9 23.7
2014-Jul-15 06:54N 40°11' W 055°55'210.7 23.7
2014-Jul-15 06:43N 40°10' W 055°53'0 0.0 23.7
2014-Jul-15 05:10N 40°10' W 055°53'318.1 23.7
2014-Jul-15 05:00N 40°07' W 055°53'1 0.2 23.7
2014-Jul-15 01:45N 40°06' W 055°52'0 0.6 23.7
2014-Jul-15 01:08N 40°06' W 055°52'1 9.1 23.8
2014-Jul-15 00:59N 40°05' W 055°52'0 0.5 23.8
2014-Jul-15 00:14N 40°05' W 055°52'0 0.0 23.8
2014-Jul-14 23:26N 40°05' W 055°52'139.6 23.8
2014-Jul-14 23:24N 40°03' W 055°52'0 0.0 23.8
2014-Jul-14 22:33N 40°03' W 055°52'0 0.7 23.8
2014-Jul-14 21:52N 40°03' W 055°52'0 6.9 23.8
2014-Jul-14 21:48N 40°03' W 055°52'114.7 23.8
2014-Jul-14 21:43N 40°02' W 055°52'0 0.0 23.8
2014-Jul-14 21:00N 40°02' W 055°52'1 8.8 23.8
2014-Jul-14 20:56N 40°02' W 055°51'0 0.0 23.8
2014-Jul-14 20:12N 40°02' W 055°51'123.7 23.8
2014-Jul-14 20:10N 40°02' W 055°52'213.3 23.8
2014-Jul-14 20:03N 40°00' W 055°53'0 0.0 23.8
2014-Jul-14 19:24N 40°00' W 055°53'0 0.0 23.8
2014-Jul-14 19:18N 40°00' W 055°53'2 2.9 23.8
2014-Jul-14 18:27N 39°58' W 055°54'0 0.0
2014-Jul-14 18:23N 39°58' W 055°54'0 0.0 23.7
2014-Jul-14 17:40N 39°58' W 055°54'0 0.1 23.8
2014-Jul-14 16:47N 39°58' W 055°54'0 0.1 23.7
2014-Jul-14 16:08N 39°58' W 055°54'2 2.2 23.7
2014-Jul-14 15:19N 39°56' W 055°53'2 9.3 23.7
2014-Jul-14 15:05N 39°54' W 055°52'0 0.0 23.7
2014-Jul-14 14:33N 39°54' W 055°52'0 0.0 23.6
2014-Jul-14 13:45N 39°54' W 055°52'338.3
2014-Jul-14 13:40N 39°51' W 055°53'2 2.8 23.5
2014-Jul-14 12:53N 39°53' W 055°54'226.0 23.4
2014-Jul-14 12:48N 39°51' W 055°53'0 0.0 23.4
2014-Jul-14 12:44N 39°51' W 055°53'0 0.0 23.4
2014-Jul-14 11:58N 39°51' W 055°53'0 0.0
2014-Jul-14 11:13N 39°51' W 055°53'1 0.9 23.3
2014-Jul-14 10:30N 39°51' W 055°54'1 0.8 23.3
2014-Jul-14 09:35N 39°50' W 055°54'117.2 23.3
2014-Jul-14 09:30N 39°49' W 055°55'0 0.0 23.4
2014-Jul-14 08:45N 39°49' W 055°55'0 0.0 23.4
2014-Jul-14 08:36N 39°49' W 055°55'0 0.0 23.4
2014-Jul-14 07:57N 39°49' W 055°55'0 2.2 23.4
2014-Jul-14 07:54N 39°49' W 055°55'1 1.0 23.4
2014-Jul-14 07:00N 39°48' W 055°55'230.2 23.4
2014-Jul-14 06:56N 39°46' W 055°57'0 0.0 23.4
2014-Jul-14 05:22N 39°46' W 055°57'429.4 23.4
2014-Jul-14 05:13N 39°43' W 056°00'0 0.0 23.4
2014-Jul-14 02:13N 39°43' W 056°00'0 0.0 23.4
2014-Jul-14 02:08N 39°43' W 056°00'0 0.1 23.4
2014-Jul-14 01:25N 39°43' W 056°00'1 1.2 23.4
2014-Jul-14 00:37N 39°42' W 056°00'2 3.3 23.4
2014-Jul-13 23:56N 39°41' W 056°03'1 7.0 23.4
2014-Jul-13 23:45N 39°42' W 056°02'115.5 23.5
2014-Jul-13 23:40N 39°41' W 056°03'0 0.0
2014-Jul-13 22:55N 39°41' W 056°03'0 0.7 23.5
2014-Jul-13 22:14N 39°41' W 056°03'2 2.4 23.5
2014-Jul-13 21:13N 39°39' W 056°04'   23.6
Track history (hours):
 
Tides and Currents Weather Stations Pressure Air Temp Water Temp Dewpoint Dewpoint Depression Visibility Wind Speed Wind Dir Waves Ship Positions

Drifting buoy 41991

Last reported at 2014-Jul-23 20:59 UTC. Time now 2014-Jul-23 22:14 UTC.
Position N 40°26' W 054°13'.

Water temperature 24.9 ° C

Date/timePositionNaut miles runAvg speedWind from/ knotsBaromVisibWave heightAir tempDewpointWater temp
2014-Jul-23 20:59N 40°26' W 054°13'126.3 24.9
2014-Jul-23 20:56N 40°26' W 054°15'1 0.9 24.9
2014-Jul-23 19:48N 40°26' W 054°16'3 6.0 25.1
2014-Jul-23 19:20N 40°25' W 054°20'222.8
2014-Jul-23 19:14N 40°24' W 054°22'0 0.0
2014-Jul-23 18:30N 40°24' W 054°22'0 0.0 25.5
2014-Jul-23 17:38N 40°24' W 054°22'3 2.8 25.7
2014-Jul-23 16:44N 40°23' W 054°26'3 2.5 25.6
2014-Jul-23 15:37N 40°23' W 054°29'0 0.0 25.3
2014-Jul-23 15:30N 40°23' W 054°29'410.4
2014-Jul-23 15:06N 40°21' W 054°34'0 0.0 25.3
2014-Jul-23 14:45N 40°21' W 054°34'7 8.8 25.1
2014-Jul-23 14:00N 40°19' W 054°42'0 0.0 24.8
2014-Jul-23 13:00N 40°19' W 054°42'0 0.0 24.4
2014-Jul-23 12:13N 40°19' W 054°42'0 0.0 24.2
2014-Jul-23 11:41N 40°19' W 054°42'0 0.0 24.2
2014-Jul-23 10:10N 40°19' W 054°42'0 5.8 24.2
2014-Jul-23 10:07N 40°19' W 054°42'435.8 24.2
2014-Jul-23 10:00N 40°18' W 054°47'439.0 24.2
2014-Jul-23 09:54N 40°19' W 054°42'411.2 24.2
2014-Jul-23 09:33N 40°18' W 054°47'0 0.0 24.2
2014-Jul-23 08:14N 40°18' W 054°47'1 2.9 24.2
2014-Jul-23 07:51N 40°17' W 054°48'239.0 24.2
2014-Jul-23 07:48N 40°17' W 054°51'0 0.0 24.2
2014-Jul-23 06:59N 40°17' W 054°51'480.3 24.2
2014-Jul-23 06:56N 40°15' W 054°55'0 0.0 24.2
2014-Jul-23 05:23N 40°15' W 054°55'740.3 24.2
2014-Jul-23 05:12N 40°11' W 055°04'0 0.0 24.2
2014-Jul-23 02:27N 40°11' W 055°04'772.2 24.2
2014-Jul-23 02:21N 40°07' W 055°12'0 0.0 24.2
2014-Jul-23 01:38N 40°07' W 055°12'0 0.0 24.2
2014-Jul-23 00:45N 40°07' W 055°12'0 0.0 24.3
2014-Jul-23 00:13N 40°07' W 055°12'0 1.6 24.3
2014-Jul-22 23:59N 40°07' W 055°12'438.0 24.3
2014-Jul-22 23:53N 40°05' W 055°15'0 0.0 24.3
2014-Jul-22 23:09N 40°05' W 055°15'0 0.0 24.3
2014-Jul-22 23:00N 40°05' W 055°15'3 2.2 24.3
2014-Jul-22 21:52N 40°03' W 055°18'0 0.0 24.3
2014-Jul-22 21:13N 40°03' W 055°18'438.9 24.3
2014-Jul-22 21:07N 40°01' W 055°22'7 7.2 24.3
2014-Jul-22 20:12N 39°56' W 055°28'0 0.0 24.3
2014-Jul-22 19:31N 39°56' W 055°28'0 0.0 24.3
2014-Jul-22 18:41N 39°56' W 055°28'0 0.0 24.3
2014-Jul-22 18:36N 39°56' W 055°28'0 0.0 24.3
2014-Jul-22 18:34N 39°56' W 055°28'0 0.0
2014-Jul-22 18:27N 39°56' W 055°28'2 2.5 24.3
2014-Jul-22 17:49N 39°55' W 055°29'0 0.0 24.3
2014-Jul-22 17:00N 39°55' W 055°29'5 4.2 24.3
2014-Jul-22 15:52N 39°51' W 055°34'0 0.0 24.2
2014-Jul-22 15:18N 39°51' W 055°34'421.8 24.2
2014-Jul-22 15:07N 39°48' W 055°37'810.6 24.2
2014-Jul-22 14:21N 39°44' W 055°46'0 0.0 24.2
2014-Jul-22 12:32N 39°44' W 055°46'0 0.1 24.2
2014-Jul-22 10:34N 39°44' W 055°46'1 4.2 24.2
2014-Jul-22 10:22N 39°43' W 055°45'5 7.5 24.2
2014-Jul-22 09:39N 39°41' W 055°52'1 1.2 24.2
2014-Jul-22 08:56N 39°42' W 055°51'210.2 24.2
2014-Jul-22 08:44N 39°41' W 055°53'0 0.0 24.2
2014-Jul-22 07:57N 39°41' W 055°53'3184.4 24.2
2014-Jul-22 07:56N 39°40' W 055°57'0 0.1 24.2
2014-Jul-22 07:13N 39°40' W 055°57'211.1 24.2
2014-Jul-22 07:00N 39°38' W 055°59'1115.0 24.2
2014-Jul-22 06:18N 39°33' W 056°11'0 0.0 24.2
2014-Jul-22 05:31N 39°33' W 056°11'0 0.0 24.2
2014-Jul-22 02:49N 39°33' W 056°11'3 3.1 24.2
2014-Jul-22 01:59N 39°32' W 056°14'2 2.4 24.2
2014-Jul-22 01:11N 39°31' W 056°16'0 0.0 24.2
2014-Jul-22 01:05N 39°31' W 056°16'330.7 24.2
2014-Jul-22 01:00N 39°30' W 056°19'2 4.0 24.2
2014-Jul-22 00:23N 39°30' W 056°23'0 0.0 24.2
2014-Jul-21 23:31N 39°30' W 056°23'3 7.9 24.2
2014-Jul-21 23:08N 39°27' W 056°25'0 0.0 24.2
2014-Jul-21 22:14N 39°27' W 056°25'265.3 24.2
2014-Jul-21 22:12N 39°27' W 056°28'0 0.0 24.2
2014-Jul-21 21:28N 39°27' W 056°28'0 0.0 24.2
2014-Jul-21 21:23N 39°27' W 056°28'120.9 24.2
2014-Jul-21 21:19N 39°27' W 056°30'0 0.0 24.2
2014-Jul-21 20:40N 39°27' W 056°30'578.5 24.2
2014-Jul-21 20:36N 39°28' W 056°37'0 0.0 24.2
2014-Jul-21 19:43N 39°28' W 056°37'2 3.2 24.2
2014-Jul-21 18:56N 39°26' W 056°35'0 0.0 24.2
2014-Jul-21 18:53N 39°26' W 056°35'1096.5 24.2
2014-Jul-21 18:47N 39°27' W 056°48'0 0.0 24.2
2014-Jul-21 17:59N 39°27' W 056°48'0 0.0 24.2
2014-Jul-21 17:11N 39°27' W 056°48'1 0.6 24.2
2014-Jul-21 15:29N 39°26' W 056°48'1 1.7 24.2
2014-Jul-21 14:41N 39°27' W 056°49'744.5 24.2
2014-Jul-21 14:31N 39°27' W 056°59'0 0.0 24.2
2014-Jul-21 13:48N 39°27' W 056°59'0 0.0 24.2
2014-Jul-21 11:59N 39°27' W 056°59'1 0.5 24.2
2014-Jul-21 10:58N 39°27' W 056°58'213.7 24.2
2014-Jul-21 10:49N 39°28' W 057°01'2 2.1 24.2
2014-Jul-21 09:51N 39°29' W 057°03'0 0.8 24.1
2014-Jul-21 09:13N 39°29' W 057°02'236.3 24.1
2014-Jul-21 09:10N 39°30' W 057°04'0 0.1 24.1
2014-Jul-21 08:14N 39°30' W 057°04'124.7 24.1
2014-Jul-21 08:11N 39°31' W 057°05'0 0.0 24.1
2014-Jul-21 07:33N 39°31' W 057°05'0 0.0 24.1
2014-Jul-21 07:30N 39°31' W 057°05'0 0.0
2014-Jul-21 07:28N 39°31' W 057°05'423.4 24.2
2014-Jul-21 07:19N 39°34' W 057°07'0 0.0 24.2
2014-Jul-21 05:45N 39°34' W 057°07'547.7 24.2
2014-Jul-21 05:39N 39°38' W 057°09'0 0.0 24.2
2014-Jul-21 05:36N 39°38' W 057°09'0 0.0 24.2
2014-Jul-21 03:59N 39°38' W 057°09'0 0.0 24.0
2014-Jul-21 03:08N 39°38' W 057°09'0 0.3 24.0
2014-Jul-21 02:19N 39°39' W 057°10'1 1.7 24.0
2014-Jul-21 01:31N 39°40' W 057°09'2 2.9 24.0
2014-Jul-21 00:43N 39°42' W 057°08'0 0.0 24.0
2014-Jul-20 23:51N 39°42' W 057°08'1 4.6 24.0
2014-Jul-20 23:39N 39°43' W 057°09'1 1.6 24.1
2014-Jul-20 22:58N 39°44' W 057°09'2 2.5 24.1
2014-Jul-20 21:57N 39°46' W 057°08'2 5.3 24.0
2014-Jul-20 21:34N 39°48' W 057°07'0 0.0 24.1
2014-Jul-20 21:31N 39°48' W 057°07'0 0.0 24.1
2014-Jul-20 20:57N 39°48' W 057°07'2 3.5 24.1
2014-Jul-20 20:14N 39°51' W 057°07'0 0.0 24.1
2014-Jul-20 19:56N 39°51' W 057°07'1 1.7 24.1
2014-Jul-20 19:24N 39°52' W 057°06'0 1.8 24.0
2014-Jul-20 19:13N 39°52' W 057°07'0 0.0 24.0
2014-Jul-20 19:04N 39°52' W 057°07'446.5 24.0
2014-Jul-20 18:59N 39°55' W 057°04'0 0.0 24.0
2014-Jul-20 18:13N 39°55' W 057°04'0 0.1 24.0
2014-Jul-20 17:24N 39°55' W 057°04'4 2.3 24.0
2014-Jul-20 15:41N 39°59' W 057°03'0 0.0 24.0
2014-Jul-20 15:00N 39°59' W 057°03'322.6 24.0
2014-Jul-20 14:53N 40°02' W 057°02'0 0.0 24.0
2014-Jul-20 14:08N 40°02' W 057°02'0 0.0 24.0
2014-Jul-20 13:20N 40°02' W 057°02'322.7 24.0
2014-Jul-20 13:13N 40°04' W 057°02'3 3.8 24.0
2014-Jul-20 12:28N 40°07' W 057°01'0 0.0 24.0
2014-Jul-20 12:21N 40°07' W 057°01'0 0.0 24.0
2014-Jul-20 11:24N 40°07' W 057°01'0 0.0 24.0
2014-Jul-20 11:21N 40°07' W 057°01'0 0.0 24.0
2014-Jul-20 11:14N 40°07' W 057°01'2 1.4 24.0
2014-Jul-20 10:00N 40°07' W 056°59'2 8.4 24.0
2014-Jul-20 09:48N 40°08' W 057°01'223.5 24.0
2014-Jul-20 09:44N 40°08' W 056°59'2 1.5 24.0
2014-Jul-20 08:28N 40°09' W 056°59'210.1 23.9
2014-Jul-20 08:19N 40°11' W 056°59'1 4.0 23.9
2014-Jul-20 08:08N 40°10' W 056°59'1 4.8 23.9
2014-Jul-20 07:59N 40°11' W 056°59'0 0.0 23.9
2014-Jul-20 07:38N 40°11' W 056°59'0 2.6 23.9
2014-Jul-20 07:31N 40°11' W 056°59'910.6 23.9
2014-Jul-20 06:42N 40°19' W 056°54'0 0.0 24.0
2014-Jul-20 05:54N 40°19' W 056°54'0 0.0 24.0
2014-Jul-20 05:47N 40°19' W 056°54'0 0.0 24.0
2014-Jul-20 01:43N 40°19' W 056°54'3 3.7 24.1
2014-Jul-20 01:00N 40°20' W 056°51'0 0.0
2014-Jul-20 00:12N 40°20' W 056°51'0 0.0 24.2
2014-Jul-20 00:08N 40°20' W 056°51'0 9.0 24.2
2014-Jul-20 00:05N 40°20' W 056°50'3 3.7 24.2
2014-Jul-19 23:22N 40°23' W 056°50'0 0.0 24.2
2014-Jul-19 22:32N 40°23' W 056°50'0 0.0 24.2
2014-Jul-19 21:44N 40°23' W 056°50'0 0.0
2014-Jul-19 21:30N 40°23' W 056°50'1 1.8 24.2
2014-Jul-19 20:43N 40°24' W 056°50'0 0.0 24.4
2014-Jul-19 20:08N 40°24' W 056°50'211.7 24.5
2014-Jul-19 20:00N 40°26' W 056°49'0 0.0 24.5
2014-Jul-19 19:50N 40°26' W 056°49'0 0.0 24.5
2014-Jul-19 19:14N 40°26' W 056°49'0 0.0 24.5
2014-Jul-19 19:11N 40°26' W 056°49'0 0.2 24.5
2014-Jul-19 18:24N 40°25' W 056°49'1 1.1 24.5
2014-Jul-19 17:36N 40°26' W 056°50'0 0.0 24.4
2014-Jul-19 17:29N 40°26' W 056°50'1 0.7 24.3
2014-Jul-19 15:53N 40°27' W 056°49'0 0.9 24.0
2014-Jul-19 15:22N 40°27' W 056°48'1 9.0 23.9
2014-Jul-19 15:13N 40°28' W 056°47'0 0.0 23.9
2014-Jul-19 14:31N 40°28' W 056°47'0 0.2 23.9
2014-Jul-19 13:44N 40°29' W 056°47'3 2.6 23.8
2014-Jul-19 12:45N 40°30' W 056°45'0 0.0 23.9
2014-Jul-19 11:54N 40°30' W 056°45'0 0.0
2014-Jul-19 11:43N 40°30' W 056°45'1 0.7 23.8
2014-Jul-19 10:14N 40°31' W 056°43'0 0.0 23.8
2014-Jul-19 10:07N 40°31' W 056°43'0 7.2
2014-Jul-19 10:03N 40°31' W 056°43'0 0.3 23.8
2014-Jul-19 08:37N 40°31' W 056°44'0 0.0 23.9
2014-Jul-19 08:34N 40°31' W 056°44'0 0.0 23.9
2014-Jul-19 08:30N 40°31' W 056°44'0 0.6 23.9
2014-Jul-19 07:47N 40°31' W 056°43'1 4.7 23.9
2014-Jul-19 07:40N 40°31' W 056°43'0 0.0 23.9
2014-Jul-19 06:58N 40°31' W 056°43'1 4.3 23.9
2014-Jul-19 06:50N 40°32' W 056°43'0 0.0 23.9
2014-Jul-19 06:09N 40°32' W 056°43'0 0.0 23.9
2014-Jul-19 06:00N 40°32' W 056°43'3176.7 23.9
2014-Jul-19 05:59N 40°33' W 056°39'0 0.0 23.9
2014-Jul-19 04:24N 40°33' W 056°39'0 0.0 23.9
2014-Jul-19 04:17N 40°33' W 056°39'0 0.0
2014-Jul-19 02:12N 40°33' W 056°39'0 2.0 23.9
2014-Jul-19 02:03N 40°33' W 056°39'0 0.0 23.9
2014-Jul-19 01:26N 40°33' W 056°39'1 6.5 23.9
2014-Jul-19 01:19N 40°34' W 056°38'0 0.1 23.9
2014-Jul-19 00:34N 40°34' W 056°38'0 1.4 23.9
2014-Jul-19 00:32N 40°34' W 056°38'0 0.5 23.9
2014-Jul-19 00:27N 40°34' W 056°38'0 0.4 23.9
2014-Jul-18 23:46N 40°34' W 056°39'0 0.0 23.9
2014-Jul-18 23:41N 40°34' W 056°39'0 6.6 23.9
2014-Jul-18 23:37N 40°34' W 056°38'0 0.0 23.9
2014-Jul-18 22:58N 40°34' W 056°38'1 7.5 24.0
2014-Jul-18 22:51N 40°35' W 056°37'0 0.0 24.0
2014-Jul-18 21:52N 40°35' W 056°37'1 0.6 24.0
2014-Jul-18 20:19N 40°34' W 056°36'1 8.2 24.0
2014-Jul-18 20:10N 40°34' W 056°34'0 0.0 23.9
2014-Jul-18 18:36N 40°34' W 056°34'1 1.2 23.9
2014-Jul-18 17:46N 40°35' W 056°33'2 1.3 23.9
2014-Jul-18 16:04N 40°35' W 056°30'0 0.0 23.9
2014-Jul-18 15:39N 40°35' W 056°30'0 0.0 23.9
2014-Jul-18 14:51N 40°35' W 056°30'0 0.4 23.9
2014-Jul-18 14:05N 40°35' W 056°31'0 1.8 23.9
2014-Jul-18 13:59N 40°35' W 056°31'0 0.1 23.8
2014-Jul-18 12:21N 40°35' W 056°30'0 2.0 23.8
2014-Jul-18 12:14N 40°35' W 056°30'0 0.0 23.8
2014-Jul-18 10:45N 40°35' W 056°30'1 5.1 23.7
2014-Jul-18 10:29N 40°35' W 056°28'0 0.0 23.8
2014-Jul-18 09:10N 40°35' W 056°28'0 0.7 23.8
2014-Jul-18 08:54N 40°35' W 056°28'1 5.9 23.8
2014-Jul-18 08:44N 40°34' W 056°27'012.0
2014-Jul-18 08:42N 40°35' W 056°27'0 0.3 23.8
2014-Jul-18 07:57N 40°34' W 056°28'113.7 23.8
2014-Jul-18 07:54N 40°34' W 056°27'1 1.3 23.8
2014-Jul-18 07:27N 40°35' W 056°27'0 0.0 23.9
2014-Jul-18 07:09N 40°35' W 056°27'114.1 23.9
2014-Jul-18 07:06N 40°35' W 056°26'110.9 23.9
2014-Jul-18 07:00N 40°35' W 056°24'0 0.0 23.9
2014-Jul-18 06:21N 40°35' W 056°24'0 0.0 23.9
2014-Jul-18 06:12N 40°35' W 056°24'1 0.8 23.9
2014-Jul-18 04:32N 40°35' W 056°23'0 0.0 23.9
2014-Jul-18 04:29N 40°35' W 056°23'0 0.1 23.9
2014-Jul-18 02:33N 40°35' W 056°23'1 1.0 24.0
2014-Jul-18 01:43N 40°35' W 056°22'0 0.6 24.0
2014-Jul-18 00:55N 40°36' W 056°22'0 0.0 24.0
2014-Jul-18 00:47N 40°36' W 056°22'0 0.5 24.0
2014-Jul-18 00:06N 40°35' W 056°22'0 5.5 24.0
2014-Jul-18 00:05N 40°35' W 056°22'1 5.8 24.0
2014-Jul-17 23:58N 40°36' W 056°21'0 0.0 24.0
2014-Jul-17 23:29N 40°36' W 056°21'0 1.4 24.1
2014-Jul-17 23:13N 40°35' W 056°21'0 0.4 24.1
2014-Jul-17 22:14N 40°35' W 056°21'0 0.0 24.1
2014-Jul-17 21:55N 40°35' W 056°21'1 0.8 24.1
2014-Jul-17 20:36N 40°35' W 056°20'0 0.0 24.1
2014-Jul-17 20:31N 40°35' W 056°20'1 4.6 24.1
2014-Jul-17 20:20N 40°34' W 056°19'0 0.0 24.1
2014-Jul-17 20:08N 40°34' W 056°19'0 0.0 24.1
2014-Jul-17 18:56N 40°34' W 056°19'0 1.6 24.1
2014-Jul-17 18:47N 40°34' W 056°19'1 1.0 24.1
2014-Jul-17 17:56N 40°34' W 056°18'1 1.2 24.1
2014-Jul-17 17:06N 40°34' W 056°17'1 1.6 24.1
2014-Jul-17 16:12N 40°34' W 056°15'1 0.8 24.0
2014-Jul-17 15:10N 40°34' W 056°16'1 0.9 23.9
2014-Jul-17 14:22N 40°34' W 056°15'0 1.5 23.9
2014-Jul-17 14:13N 40°34' W 056°15'0 0.1
2014-Jul-17 12:42N 40°34' W 056°15'2 2.3 23.9
2014-Jul-17 11:45N 40°34' W 056°12'0 0.0 23.9
2014-Jul-17 11:18N 40°34' W 056°12'0 0.0 23.9
2014-Jul-17 10:35N 40°34' W 056°12'2 1.3 23.9
2014-Jul-17 09:13N 40°34' W 056°14'1 4.3 23.8
2014-Jul-17 08:53N 40°34' W 056°12'1 0.6 23.9
2014-Jul-17 08:03N 40°34' W 056°13'110.0 24.0
2014-Jul-17 08:00N 40°34' W 056°12'1 1.1 24.0
2014-Jul-17 07:33N 40°34' W 056°13'1 3.2 24.0
2014-Jul-17 07:21N 40°34' W 056°12'0 1.3 24.0
2014-Jul-17 07:14N 40°34' W 056°12'0 0.5 24.1
2014-Jul-17 06:31N 40°33' W 056°12'2 8.3 24.1
2014-Jul-17 06:20N 40°33' W 056°10'0 0.0 24.1
2014-Jul-17 04:47N 40°33' W 056°10'0 0.0 24.1
2014-Jul-17 04:38N 40°33' W 056°10'0 0.1 24.1
2014-Jul-17 02:53N 40°33' W 056°10'0 0.5 23.9
2014-Jul-17 02:05N 40°33' W 056°10'1 1.2 23.9
2014-Jul-17 01:13N 40°33' W 056°08'1 1.1 24.0
2014-Jul-17 00:25N 40°32' W 056°09'125.1 24.0
2014-Jul-17 00:23N 40°32' W 056°09'0 0.0 24.0
2014-Jul-16 23:58N 40°32' W 056°09'0 0.0 23.9
2014-Jul-16 23:33N 40°32' W 056°09'1 7.0 23.9
2014-Jul-16 23:26N 40°31' W 056°08'0 0.0 23.9
2014-Jul-16 22:26N 40°31' W 056°08'0 0.0 23.9
2014-Jul-16 21:00N 40°31' W 056°08'0 0.1 24.1
2014-Jul-16 20:40N 40°31' W 056°08'1 6.7 24.1
2014-Jul-16 20:35N 40°31' W 056°07'0 0.1 24.1
2014-Jul-16 19:24N 40°31' W 056°07'0 0.2 23.9
2014-Jul-16 18:59N 40°31' W 056°07'1 8.7 23.9
2014-Jul-16 18:52N 40°30' W 056°06'0 0.0 23.9
2014-Jul-16 18:09N 40°30' W 056°06'1 1.0 24.1
2014-Jul-16 17:17N 40°29' W 056°06'0 0.0 24.3
2014-Jul-16 17:14N 40°29' W 056°06'0 0.2 24.3
2014-Jul-16 16:25N 40°29' W 056°06'116.8 24.2
2014-Jul-16 16:20N 40°29' W 056°05'0 0.0 24.2
2014-Jul-16 15:30N 40°29' W 056°05'1 0.9 24.2
2014-Jul-16 14:44N 40°29' W 056°04'0 0.0 24.2
2014-Jul-16 14:37N 40°29' W 056°04'0 0.0 24.2
2014-Jul-16 13:52N 40°29' W 056°04'0 0.0 24.1
2014-Jul-16 13:00N 40°29' W 056°04'1 0.7 24.0
2014-Jul-16 12:10N 40°29' W 056°04'0 3.9 23.9
2014-Jul-16 12:05N 40°29' W 056°03'0 0.0 23.9
2014-Jul-16 11:19N 40°29' W 056°03'0 0.0 23.9
2014-Jul-16 11:13N 40°29' W 056°03'0 1.0 23.9
2014-Jul-16 10:48N 40°29' W 056°03'0 0.0 23.9
2014-Jul-16 10:13N 40°29' W 056°03'0 3.9 23.9
2014-Jul-16 10:09N 40°28' W 056°04'0 0.0 23.9
2014-Jul-16 09:44N 40°28' W 056°04'0 1.0 23.9
2014-Jul-16 09:35N 40°28' W 056°03'0 0.3 23.9
2014-Jul-16 09:14N 40°28' W 056°03'0 6.6 23.9
2014-Jul-16 09:12N 40°28' W 056°03'110.7 23.9
2014-Jul-16 09:07N 40°28' W 056°04'0 0.5 23.9
2014-Jul-16 08:19N 40°27' W 056°04'1 0.8 23.9
2014-Jul-16 07:32N 40°27' W 056°04'0 0.0 23.9
2014-Jul-16 07:29N 40°27' W 056°04'120.5 23.9
2014-Jul-16 07:25N 40°26' W 056°03'0 0.0 23.9
2014-Jul-16 06:51N 40°26' W 056°03'0 0.0 23.9
2014-Jul-16 06:41N 40°26' W 056°03'1 9.2 23.9
2014-Jul-16 06:33N 40°25' W 056°03'0 0.0 23.9
2014-Jul-16 04:59N 40°25' W 056°03'213.1 23.9
2014-Jul-16 04:50N 40°24' W 056°01'0 0.0 23.9
2014-Jul-16 02:26N 40°24' W 056°01'0 0.4 23.9
2014-Jul-16 01:30N 40°23' W 056°00'1 1.4 23.9
2014-Jul-16 00:44N 40°23' W 055°59'0 0.0 23.9
2014-Jul-16 00:31N 40°23' W 055°59'0 0.0 23.9
2014-Jul-15 23:56N 40°23' W 055°59'1 7.0 23.9
2014-Jul-15 23:45N 40°22' W 055°58'0 0.5 24.0
2014-Jul-15 23:06N 40°22' W 055°59'0 2.0 24.0
2014-Jul-15 22:57N 40°22' W 055°58'0 0.2 24.0
2014-Jul-15 21:28N 40°22' W 055°59'0 0.7 24.0
2014-Jul-15 20:48N 40°22' W 055°59'223.0 24.1
2014-Jul-15 20:43N 40°20' W 055°58'0 0.0 24.1
2014-Jul-15 19:48N 40°20' W 055°58'0 0.0 24.1
2014-Jul-15 19:44N 40°20' W 055°58'0 0.1 24.1
2014-Jul-15 19:09N 40°20' W 055°58'1 0.7 24.1
2014-Jul-15 18:13N 40°19' W 055°58'1 1.3 24.0
2014-Jul-15 17:29N 40°18' W 055°57'0 0.0 24.0
2014-Jul-15 17:27N 40°18' W 055°57'0 0.0 24.0
2014-Jul-15 16:37N 40°18' W 055°57'1 0.8 23.9
2014-Jul-15 15:45N 40°18' W 055°56'1 0.7
2014-Jul-15 14:59N 40°18' W 055°57'224.6
2014-Jul-15 14:55N 40°16' W 055°56'0 0.3 23.8
2014-Jul-15 14:13N 40°16' W 055°56'0 0.0 23.8
2014-Jul-15 13:24N 40°16' W 055°56'214.3 23.7
2014-Jul-15 13:14N 40°14' W 055°55'0 0.0 23.7
2014-Jul-15 11:39N 40°14' W 055°55'0 0.0 23.6
2014-Jul-15 10:42N 40°14' W 055°55'0 0.3 23.6
2014-Jul-15 10:08N 40°14' W 055°55'1 7.5 23.6
2014-Jul-15 10:03N 40°13' W 055°55'0 0.2 23.6
2014-Jul-15 09:22N 40°13' W 055°55'1 1.7 23.6
2014-Jul-15 09:00N 40°13' W 055°54'1 1.6 23.6
2014-Jul-15 08:25N 40°12' W 055°54'0 0.6 23.7
2014-Jul-15 07:42N 40°12' W 055°54'0 0.5 23.7
2014-Jul-15 07:22N 40°12' W 055°54'1 1.9 23.7
2014-Jul-15 06:54N 40°11' W 055°55'210.7 23.7
2014-Jul-15 06:43N 40°10' W 055°53'0 0.0 23.7
2014-Jul-15 05:10N 40°10' W 055°53'318.1 23.7
2014-Jul-15 05:00N 40°07' W 055°53'1 0.2 23.7
2014-Jul-15 01:45N 40°06' W 055°52'0 0.6 23.7
2014-Jul-15 01:08N 40°06' W 055°52'1 9.1 23.8
2014-Jul-15 00:59N 40°05' W 055°52'0 0.5 23.8
2014-Jul-15 00:14N 40°05' W 055°52'0 0.0 23.8
2014-Jul-14 23:26N 40°05' W 055°52'139.6 23.8
2014-Jul-14 23:24N 40°03' W 055°52'0 0.0 23.8
2014-Jul-14 22:33N 40°03' W 055°52'0 0.7 23.8
2014-Jul-14 21:52N 40°03' W 055°52'0 6.9 23.8
2014-Jul-14 21:48N 40°03' W 055°52'114.7 23.8
2014-Jul-14 21:43N 40°02' W 055°52'0 0.0 23.8
2014-Jul-14 21:00N 40°02' W 055°52'1 8.8 23.8
2014-Jul-14 20:56N 40°02' W 055°51'0 0.0 23.8
2014-Jul-14 20:12N 40°02' W 055°51'123.7 23.8
2014-Jul-14 20:10N 40°02' W 055°52'213.3 23.8
2014-Jul-14 20:03N 40°00' W 055°53'0 0.0 23.8
2014-Jul-14 19:24N 40°00' W 055°53'0 0.0 23.8
2014-Jul-14 19:18N 40°00' W 055°53'2 2.9 23.8
2014-Jul-14 18:27N 39°58' W 055°54'0 0.0
2014-Jul-14 18:23N 39°58' W 055°54'0 0.0 23.7
2014-Jul-14 17:40N 39°58' W 055°54'0 0.1 23.8
2014-Jul-14 16:47N 39°58' W 055°54'0 0.1 23.7
2014-Jul-14 16:08N 39°58' W 055°54'2 2.2 23.7
2014-Jul-14 15:19N 39°56' W 055°53'2 9.3 23.7
2014-Jul-14 15:05N 39°54' W 055°52'0 0.0 23.7
2014-Jul-14 14:33N 39°54' W 055°52'0 0.0 23.6
2014-Jul-14 13:45N 39°54' W 055°52'338.3
2014-Jul-14 13:40N 39°51' W 055°53'2 2.8 23.5
2014-Jul-14 12:53N 39°53' W 055°54'226.0 23.4
2014-Jul-14 12:48N 39°51' W 055°53'0 0.0 23.4
2014-Jul-14 12:44N 39°51' W 055°53'0 0.0 23.4
2014-Jul-14 11:58N 39°51' W 055°53'0 0.0
2014-Jul-14 11:13N 39°51' W 055°53'1 0.9 23.3
2014-Jul-14 10:30N 39°51' W 055°54'1 0.8 23.3
2014-Jul-14 09:35N 39°50' W 055°54'117.2 23.3
2014-Jul-14 09:30N 39°49' W 055°55'0 0.0 23.4
2014-Jul-14 08:45N 39°49' W 055°55'0 0.0 23.4
2014-Jul-14 08:36N 39°49' W 055°55'0 0.0 23.4
2014-Jul-14 07:57N 39°49' W 055°55'0 2.2 23.4
2014-Jul-14 07:54N 39°49' W 055°55'1 1.0 23.4
2014-Jul-14 07:00N 39°48' W 055°55'230.2 23.4
2014-Jul-14 06:56N 39°46' W 055°57'0 0.0 23.4
2014-Jul-14 05:22N 39°46' W 055°57'429.4 23.4
2014-Jul-14 05:13N 39°43' W 056°00'0 0.0 23.4
2014-Jul-14 02:13N 39°43' W 056°00'0 0.0 23.4
2014-Jul-14 02:08N 39°43' W 056°00'0 0.1 23.4
2014-Jul-14 01:25N 39°43' W 056°00'1 1.2 23.4
2014-Jul-14 00:37N 39°42' W 056°00'2 3.3 23.4
2014-Jul-13 23:56N 39°41' W 056°03'1 7.0 23.4
2014-Jul-13 23:45N 39°42' W 056°02'115.5 23.5
2014-Jul-13 23:40N 39°41' W 056°03'0 0.0
2014-Jul-13 22:55N 39°41' W 056°03'0 0.7 23.5
2014-Jul-13 22:14N 39°41' W 056°03'2 2.4 23.5
2014-Jul-13 21:13N 39°39' W 056°04'   23.6

Dump ship's entire track history